| time (UTC) | temp C | wind direction | speed KPH | gust KPH | rain 1hr cm | rain 24hr cm | rain mn cm | humidity % | barometer mb |
| 20260504110546 | 16 | 19 | 6.4 | 22.5 | 0.00 | 0.00 | 0.00 | 39 | 1021.3 |
| 20260504100544 | 15 | 298 | 9.7 | 25.7 | 0.00 | 0.00 | 0.00 | 44 | 1021.7 |
| 20260504081528 | 14 | 360 | 3.2 | 27.4 | 0.00 | 0.00 | 0.00 | 56 | 1021.8 |
| 20260504081028 | 13 | 360 | 8.0 | 17.7 | 0.00 | 0.00 | 0.00 | 57 | 1021.9 |
| 20260504080628 | 13 | 360 | 4.8 | 14.5 | 0.00 | 0.00 | 0.00 | 55 | 1021.8 |
| 20260504050540 | 10 | 300 | 0.0 | 3.2 | 0.00 | 0.10 | 0.00 | 75 | 1021.0 |
| 20260504050104 | 10 | 299 | 0.0 | 3.2 | 0.00 | 0.10 | 0.00 | 77 | 1021.0 |
| 20260504045537 | 10 | 360 | 0.0 | 3.2 | 0.00 | 0.48 | 0.00 | 78 | 1020.9 |
| 20260504045037 | 9 | 300 | 0.0 | 1.6 | 0.00 | 0.48 | 0.00 | 78 | 1020.9 |
| 20260504044534 | 8 | 360 | 0.0 | 1.6 | 0.00 | 0.48 | 0.00 | 79 | 1020.9 |
| 20260504044033 | 8 | 298 | 0.0 | 1.6 | 0.00 | 0.48 | 0.00 | 79 | 1020.8 |
| 20260504043534 | 8 | 298 | 0.0 | 1.6 | 0.00 | 0.48 | 0.00 | 81 | 1020.8 |
| 20260504043030 | 8 | 298 | 0.0 | 1.6 | 0.00 | 0.48 | 0.00 | 82 | 1020.8 |
| 20260504042530 | 7 | 298 | 0.0 | 1.6 | 0.00 | 0.48 | 0.00 | 81 | 1020.8 |
| 20260504042026 | 7 | 298 | 0.0 | 1.6 | 0.00 | 0.48 | 0.00 | 81 | 1020.8 |
| 20260504041525 | 7 | 298 | 0.0 | 0.0 | 0.00 | 0.48 | 0.00 | 80 | 1020.8 |
| 20260504041023 | 7 | 298 | 0.0 | 1.6 | 0.00 | 0.48 | 0.00 | 81 | 1020.7 |
| 20260504040523 | 7 | 298 | 0.0 | 1.6 | 0.00 | 0.48 | 0.00 | 81 | 1020.6 |
| 20260504040021 | 7 | 298 | 0.0 | 1.6 | 0.00 | 0.48 | 0.00 | 82 | 1020.7 |
| 20260504035520 | 6 | 298 | 0.0 | 1.6 | 0.00 | 0.51 | 0.00 | 81 | 1020.6 |
| 20260504035023 | 7 | 298 | 0.0 | 3.2 | 0.00 | 0.51 | 0.00 | 80 | 1020.5 |
| 20260504034534 | 7 | 298 | 0.0 | 4.8 | 0.00 | 0.51 | 0.00 | 80 | 1020.4 |
| 20260504034022 | 7 | 355 | 0.0 | 1.6 | 0.00 | 0.51 | 0.00 | 81 | 1020.5 |
| 20260504033521 | 7 | 355 | 0.0 | 6.4 | 0.00 | 0.51 | 0.00 | 81 | 1020.5 |
| 20260504033023 | 7 | 355 | 0.0 | 6.4 | 0.00 | 0.51 | 0.00 | 80 | 1020.5 |
| 20260504032516 | 7 | 325 | 0.0 | 3.2 | 0.00 | 0.51 | 0.00 | 79 | 1020.5 |
| 20260504032016 | 7 | 306 | 0.0 | 3.2 | 0.00 | 0.51 | 0.00 | 79 | 1020.5 |
| 20260504031516 | 7 | 306 | 0.0 | 1.6 | 0.00 | 0.51 | 0.00 | 78 | 1020.5 |
| 20260504031015 | 7 | 306 | 0.0 | 1.6 | 0.00 | 0.51 | 0.00 | 78 | 1020.5 |
| 20260504030515 | 7 | 306 | 0.0 | 3.2 | 0.00 | 0.51 | 0.00 | 78 | 1020.6 |
| 20260504030017 | 7 | 306 | 0.0 | 6.4 | 0.00 | 0.51 | 0.00 | 78 | 1020.6 |
| 20260504025516 | 7 | 284 | 1.6 | 6.4 | 0.00 | 0.51 | 0.00 | 78 | 1020.6 |
| 20260504025015 | 7 | 322 | 0.0 | 0.0 | 0.00 | 0.51 | 0.00 | 78 | 1020.6 |
| 20260504024516 | 7 | 322 | 0.0 | 0.0 | 0.00 | 0.51 | 0.00 | 78 | 1020.6 |
| 20260504024017 | 7 | 319 | 0.0 | 0.0 | 0.00 | 0.51 | 0.00 | 77 | 1020.5 |
| 20260504023514 | 7 | 320 | 0.0 | 0.0 | 0.00 | 0.51 | 0.00 | 76 | 1020.5 |
| 20260504023014 | 7 | 320 | 0.0 | 0.0 | 0.00 | 0.51 | 0.00 | 76 | 1020.5 |
| 20260504022516 | 7 | 320 | 0.0 | 3.2 | 0.00 | 0.51 | 0.00 | 76 | 1020.5 |
| 20260504022014 | 7 | 321 | 0.0 | 3.2 | 0.00 | 0.51 | 0.00 | 76 | 1020.5 |
| 20260504021513 | 7 | 321 | 0.0 | 4.8 | 0.00 | 0.51 | 0.00 | 75 | 1020.6 |
| 20260504021012 | 7 | 336 | 0.0 | 4.8 | 0.00 | 0.51 | 0.00 | 75 | 1020.6 |
| 20260504020513 | 7 | 336 | 0.0 | 4.8 | 0.00 | 0.51 | 0.00 | 76 | 1020.5 |
| 20260504020013 | 7 | 336 | 0.0 | 4.8 | 0.00 | 0.51 | 0.00 | 77 | 1020.6 |
| 20260504015514 | 7 | 341 | 0.0 | 4.8 | 0.00 | 0.51 | 0.00 | 78 | 1020.6 |
| 20260504015017 | 7 | 314 | 0.0 | 4.8 | 0.00 | 0.51 | 0.00 | 79 | 1020.6 |
| 20260504014517 | 7 | 312 | 0.0 | 3.2 | 0.00 | 0.51 | 0.00 | 79 | 1020.6 |
| 20260504014011 | 6 | 309 | 0.0 | 3.2 | 0.00 | 0.51 | 0.00 | 80 | 1020.4 |
| 20260504013512 | 6 | 326 | 0.0 | 3.2 | 0.00 | 0.51 | 0.00 | 80 | 1020.6 |
| 20260504013011 | 6 | 313 | 0.0 | 1.6 | 0.00 | 0.51 | 0.00 | 79 | 1020.7 |
| 20260504012511 | 6 | 312 | 0.0 | 6.4 | 0.00 | 0.51 | 0.00 | 79 | 1020.7 |
| 20260504012011 | 6 | 311 | 0.0 | 6.4 | 0.00 | 0.51 | 0.00 | 79 | 1020.7 |
| 20260504011511 | 6 | 303 | 0.0 | 1.6 | 0.00 | 0.51 | 0.00 | 79 | 1020.7 |
| 20260504011011 | 6 | 302 | 0.0 | 0.0 | 0.00 | 0.51 | 0.00 | 79 | 1020.7 |
| 20260504010511 | 6 | 302 | 0.0 | 0.0 | 0.00 | 0.51 | 0.00 | 80 | 1020.6 |
| 20260504010010 | 6 | 303 | 0.0 | 0.0 | 0.00 | 0.51 | 0.00 | 79 | 1020.5 |
| 20260504005509 | 6 | 303 | 0.0 | 1.6 | 0.00 | 0.51 | 0.00 | 77 | 1020.6 |
| 20260504005009 | 6 | 302 | 0.0 | 3.2 | 0.00 | 0.51 | 0.00 | 77 | 1020.6 |
| 20260504004508 | 6 | 303 | 0.0 | 3.2 | 0.00 | 0.51 | 0.00 | 77 | 1020.6 |
| 20260504004008 | 7 | 302 | 0.0 | 1.6 | 0.00 | 0.51 | 0.00 | 77 | 1020.5 |
| 20260504003508 | 7 | 302 | 0.0 | 0.0 | 0.00 | 0.51 | 0.00 | 77 | 1020.5 |
| 20260504003007 | 6 | 302 | 0.0 | 0.0 | 0.00 | 0.51 | 0.00 | 77 | 1020.5 |
| 20260504002507 | 7 | 302 | 0.0 | 1.6 | 0.00 | 0.51 | 0.00 | 77 | 1020.5 |
| 20260504002007 | 6 | 303 | 0.0 | 1.6 | 0.00 | 0.51 | 0.00 | 78 | 1020.4 |
| 20260504001506 | 6 | 302 | 0.0 | 0.0 | 0.00 | 0.51 | 0.00 | 77 | 1020.5 |
| 20260504001005 | 7 | 303 | 0.0 | 1.6 | 0.00 | 0.51 | 0.00 | 76 | 1020.5 |
| 20260504000505 | 7 | 302 | 0.0 | 1.6 | 0.00 | 0.51 | 0.00 | 74 | 1020.6 |
| 20260504000003 | 7 | 302 | 0.0 | 3.2 | 0.00 | 0.51 | 0.00 | 74 | 1020.6 |
| 20260503235504 | 7 | 303 | 0.0 | 3.2 | 0.00 | 0.51 | 0.00 | 73 | 1020.6 |
| 20260503235004 | 7 | 302 | 0.0 | 4.8 | 0.00 | 0.51 | 0.00 | 73 | 1020.6 |
| 20260503234503 | 7 | 302 | 1.6 | 4.8 | 0.00 | 0.51 | 0.00 | 74 | 1020.6 |
| 20260503234002 | 7 | 298 | 0.0 | 3.2 | 0.00 | 0.51 | 0.00 | 74 | 1020.5 |
| 20260503233501 | 7 | 298 | 0.0 | 3.2 | 0.00 | 0.51 | 0.00 | 74 | 1020.5 |
| 20260503233001 | 7 | 306 | 0.0 | 3.2 | 0.00 | 0.51 | 0.00 | 73 | 1020.5 |
| 20260503232501 | 7 | 305 | 0.0 | 3.2 | 0.00 | 0.51 | 0.00 | 72 | 1020.4 |
| 20260503232101 | 7 | 306 | 0.0 | 1.6 | 0.00 | 0.51 | 0.00 | 72 | 1020.5 |
| 20260503231600 | 7 | 306 | 0.0 | 4.8 | 0.00 | 0.51 | 0.00 | 72 | 1020.5 |
| 20260503231101 | 7 | 306 | 0.0 | 4.8 | 0.00 | 0.51 | 0.00 | 72 | 1020.6 |
| 20260503230601 | 7 | 339 | 0.0 | 1.6 | 0.00 | 0.51 | 0.00 | 72 | 1020.5 |
| 20260503225558 | 7 | 339 | 1.6 | 6.4 | 0.00 | 0.51 | 0.00 | 73 | 1020.5 |
| 20260503225102 | 7 | 342 | 0.0 | 12.9 | 0.00 | 0.51 | 0.00 | 73 | 1020.6 |
| 20260503224558 | 7 | 342 | 3.2 | 12.9 | 0.00 | 0.51 | 0.00 | 73 | 1020.6 |
| 20260503224058 | 7 | 340 | 0.0 | 8.0 | 0.00 | 0.51 | 0.00 | 73 | 1020.6 |
| 20260503223557 | 7 | 319 | 0.0 | 8.0 | 0.00 | 0.51 | 0.00 | 73 | 1020.7 |
| 20260503223057 | 7 | 17 | 1.6 | 8.0 | 0.00 | 0.51 | 0.00 | 73 | 1020.6 |
| 20260503222556 | 7 | 333 | 1.6 | 6.4 | 0.00 | 0.51 | 0.00 | 73 | 1020.7 |
| 20260503222056 | 7 | 297 | 0.0 | 6.4 | 0.00 | 0.51 | 0.00 | 72 | 1020.6 |
| 20260503221556 | 7 | 278 | 1.6 | 4.8 | 0.00 | 0.51 | 0.00 | 72 | 1020.6 |
| 20260503221054 | 7 | 309 | 0.0 | 8.0 | 0.00 | 0.51 | 0.00 | 72 | 1020.7 |
| 20260503220553 | 7 | 265 | 0.0 | 8.0 | 0.00 | 0.51 | 0.00 | 71 | 1020.6 |
| 20260503220053 | 7 | 264 | 1.6 | 6.4 | 0.00 | 0.51 | 0.00 | 71 | 1020.6 |
| 20260503215552 | 7 | 334 | 1.6 | 6.4 | 0.00 | 0.51 | 0.00 | 71 | 1020.6 |
| 20260503215050 | 7 | 305 | 1.6 | 8.0 | 0.00 | 0.51 | 0.00 | 71 | 1020.6 |
| 20260503214556 | 7 | 360 | 1.6 | 8.0 | 0.00 | 0.51 | 0.00 | 70 | 1020.6 |
| 20260503214055 | 7 | 308 | 0.0 | 9.7 | 0.00 | 0.51 | 0.00 | 70 | 1020.5 |
| 20260503213549 | 7 | 320 | 1.6 | 9.7 | 0.00 | 0.51 | 0.00 | 70 | 1020.6 |
| 20260503213117 | 7 | 39 | 0.0 | 6.4 | 0.00 | 0.51 | 0.00 | 70 | 1020.7 |
| 20260503212548 | 8 | 39 | 1.6 | 6.4 | 0.00 | 0.51 | 0.00 | 69 | 1020.7 |
| 20260503212050 | 8 | 313 | 1.6 | 6.4 | 0.00 | 0.51 | 0.00 | 69 | 1020.7 |
| 20260503211613 | 7 | 281 | 1.6 | 4.8 | 0.00 | 0.51 | 0.00 | 70 | 1020.7 |
| 20260503211047 | 7 | 296 | 0.0 | 8.0 | 0.00 | 0.51 | 0.00 | 69 | 1020.7 |
| 20260503210545 | 8 | 298 | 3.2 | 9.7 | 0.00 | 0.51 | 0.00 | 69 | 1020.7 |
| 20260503210044 | 7 | 317 | 1.6 | 8.0 | 0.00 | 0.51 | 0.00 | 69 | 1020.7 |
| 20260503205544 | 8 | 325 | 3.2 | 8.0 | 0.00 | 0.51 | 0.51 | 69 | 1020.7 |
| 20260503205045 | 8 | 344 | 1.6 | 4.8 | 0.00 | 0.51 | 0.51 | 68 | 1020.6 |
| 20260503204559 | 8 | 355 | 1.6 | 8.0 | 0.00 | 0.51 | 0.51 | 68 | 1020.7 |
| 20260503204043 | 8 | 337 | 1.6 | 14.5 | 0.00 | 0.51 | 0.51 | 68 | 1020.8 |
| 20260503203542 | 8 | 350 | 3.2 | 20.9 | 0.00 | 0.51 | 0.51 | 68 | 1020.8 |
| 20260503203042 | 8 | 341 | 6.4 | 20.9 | 0.00 | 0.51 | 0.51 | 68 | 1020.9 |
| 20260503202542 | 8 | 343 | 3.2 | 14.5 | 0.00 | 0.51 | 0.51 | 67 | 1020.7 |
| 20260503202046 | 8 | 360 | 3.2 | 14.5 | 0.00 | 0.51 | 0.51 | 67 | 1020.8 |
| 20260503201543 | 8 | 360 | 6.4 | 17.7 | 0.00 | 0.51 | 0.51 | 67 | 1020.7 |
| 20260503201042 | 8 | 318 | 9.7 | 20.9 | 0.00 | 0.51 | 0.51 | 67 | 1020.7 |
| 20260503200541 | 8 | 40 | 4.8 | 22.5 | 0.00 | 0.51 | 0.51 | 67 | 1020.7 |
| 20260503200042 | 8 | 346 | 8.0 | 22.5 | 0.00 | 0.51 | 0.51 | 67 | 1020.8 |
| 20260503195541 | 8 | 341 | 8.0 | 25.7 | 0.00 | 0.51 | 0.51 | 67 | 1020.7 |
| 20260503195042 | 8 | 327 | 12.9 | 25.7 | 0.00 | 0.51 | 0.51 | 67 | 1020.7 |
| 20260503194542 | 8 | 33 | 11.3 | 19.3 | 0.00 | 0.51 | 0.51 | 67 | 1020.6 |
| 20260503194041 | 8 | 9 | 6.4 | 19.3 | 0.00 | 0.51 | 0.51 | 67 | 1020.6 |
| 20260503193541 | 8 | 360 | 8.0 | 16.1 | 0.00 | 0.51 | 0.51 | 67 | 1020.6 |
| 20260503193041 | 8 | 342 | 6.4 | 19.3 | 0.00 | 0.51 | 0.51 | 67 | 1020.7 |
| 20260503192541 | 8 | 312 | 6.4 | 25.7 | 0.00 | 0.51 | 0.51 | 67 | 1020.7 |
| 20260503192040 | 8 | 350 | 6.4 | 25.7 | 0.00 | 0.51 | 0.51 | 67 | 1020.6 |
| 20260503191555 | 8 | 337 | 8.0 | 22.5 | 0.00 | 0.51 | 0.51 | 68 | 1020.6 |
| 20260503191040 | 8 | 329 | 9.7 | 22.5 | 0.00 | 0.51 | 0.51 | 67 | 1020.6 |
| 20260503190538 | 8 | 310 | 8.0 | 20.9 | 0.00 | 0.51 | 0.51 | 68 | 1020.5 |
| 20260503190040 | 8 | 349 | 8.0 | 19.3 | 0.00 | 0.51 | 0.51 | 68 | 1020.6 |
| 20260503185539 | 8 | 307 | 4.8 | 17.7 | 0.00 | 0.51 | 0.51 | 68 | 1020.6 |
| 20260503185038 | 8 | 335 | 8.0 | 20.9 | 0.00 | 0.51 | 0.51 | 68 | 1020.6 |
| 20260503184546 | 8 | 346 | 9.7 | 20.9 | 0.00 | 0.51 | 0.51 | 68 | 1020.5 |
| 20260503184039 | 8 | 350 | 4.8 | 17.7 | 0.00 | 0.51 | 0.51 | 68 | 1020.3 |
| 20260503183535 | 8 | 292 | 4.8 | 19.3 | 0.00 | 0.51 | 0.51 | 67 | 1020.3 |
| 20260503183042 | 8 | 284 | 6.4 | 20.9 | 0.00 | 0.51 | 0.51 | 67 | 1020.1 |
| 20260503182534 | 8 | 355 | 9.7 | 25.7 | 0.00 | 0.51 | 0.51 | 68 | 1020.1 |
| 20260503182034 | 8 | 322 | 12.9 | 25.7 | 0.00 | 0.51 | 0.51 | 68 | 1019.9 |
| 20260503181534 | 8 | 297 | 4.8 | 22.5 | 0.00 | 0.51 | 0.51 | 68 | 1019.9 |
| 20260503181038 | 8 | 348 | 4.8 | 22.5 | 0.00 | 0.51 | 0.51 | 68 | 1019.9 |
| 20260503180533 | 8 | 343 | 6.4 | 22.5 | 0.00 | 0.51 | 0.51 | 69 | 1019.8 |
| 20260503180035 | 8 | 327 | 6.4 | 17.7 | 0.00 | 0.51 | 0.51 | 69 | 1019.6 |
| 20260503175534 | 8 | 323 | 4.8 | 17.7 | 0.00 | 0.51 | 0.51 | 69 | 1019.6 |
| 20260503175031 | 8 | 341 | 3.2 | 12.9 | 0.00 | 0.51 | 0.51 | 69 | 1019.6 |
| 20260503174541 | 8 | 335 | 1.6 | 25.7 | 0.00 | 0.51 | 0.51 | 68 | 1019.6 |
| 20260503174032 | 8 | 5 | 11.3 | 25.7 | 0.00 | 0.51 | 0.51 | 68 | 1019.6 |
| 20260503173530 | 8 | 355 | 4.8 | 16.1 | 0.00 | 0.51 | 0.51 | 69 | 1019.6 |
| 20260503173030 | 8 | 317 | 4.8 | 16.1 | 0.00 | 0.51 | 0.51 | 68 | 1019.4 |
| 20260503172528 | 8 | 319 | 4.8 | 22.5 | 0.00 | 0.51 | 0.51 | 68 | 1019.5 |
| 20260503172028 | 8 | 360 | 4.8 | 22.5 | 0.00 | 0.51 | 0.51 | 68 | 1019.3 |
| 20260503171533 | 8 | 321 | 1.6 | 16.1 | 0.00 | 0.51 | 0.51 | 68 | 1019.2 |
| 20260503171031 | 8 | 300 | 4.8 | 22.5 | 0.00 | 0.51 | 0.51 | 67 | 1019.2 |
| 20260503170528 | 8 | 263 | 8.0 | 22.5 | 0.00 | 0.51 | 0.51 | 66 | 1019.3 |
| 20260503150530 | 10 | 360 | 16.1 | 32.2 | 0.00 | 0.51 | 0.51 | 55 | 1018.5 |
| 20260503131019 | 11 | 340 | 16.1 | 32.2 | 0.00 | 0.51 | 0.51 | 66 | 1018.4 |
| 20260503130518 | 11 | 17 | 14.5 | 37.0 | 0.00 | 0.51 | 0.51 | 67 | 1018.5 |